Map

Track Data

SID SEASON NUMBER BASIN SUBBASIN NAME ISO_TIME NATURE LAT LON WMO_WIND WMO_PRES WMO_AGENCY TRACK_TYPE DIST2LAND LANDFALL IFLAG USA_AGENCY USA_ATCF_ID USA_LAT USA_LON USA_RECORD USA_STATUS USA_WIND USA_PRES USA_SSHS USA_R34_NE USA_R34_SE USA_R34_SW USA_R34_NW USA_R50_NE USA_R50_SE USA_R50_SW USA_R50_NW USA_R64_NE USA_R64_SE USA_R64_SW USA_R64_NW USA_POCI USA_ROCI USA_RMW USA_EYE TOKYO_LAT TOKYO_LON TOKYO_GRADE TOKYO_WIND TOKYO_PRES TOKYO_R50_DIR TOKYO_R50_LONG TOKYO_R50_SHORT TOKYO_R30_DIR TOKYO_R30_LONG TOKYO_R30_SHORT TOKYO_LAND CMA_LAT CMA_LON CMA_CAT CMA_WIND CMA_PRES HKO_LAT HKO_LON HKO_CAT HKO_WIND HKO_PRES NEWDELHI_LAT NEWDELHI_LON NEWDELHI_GRADE NEWDELHI_WIND NEWDELHI_PRES NEWDELHI_CI NEWDELHI_DP NEWDELHI_POCI REUNION_LAT REUNION_LON REUNION_TYPE REUNION_WIND REUNION_PRES REUNION_TNUM REUNION_CI REUNION_RMW REUNION_R34_NE REUNION_R34_SE REUNION_R34_SW REUNION_R34_NW REUNION_R50_NE REUNION_R50_SE REUNION_R50_SW REUNION_R50_NW REUNION_R64_NE REUNION_R64_SE REUNION_R64_SW REUNION_R64_NW BOM_LAT BOM_LON BOM_TYPE BOM_WIND BOM_PRES BOM_TNUM BOM_CI BOM_RMW BOM_R34_NE BOM_R34_SE BOM_R34_SW BOM_R34_NW BOM_R50_NE BOM_R50_SE BOM_R50_SW BOM_R50_NW BOM_R64_NE BOM_R64_SE BOM_R64_SW BOM_R64_NW BOM_ROCI BOM_POCI BOM_EYE BOM_POS_METHOD BOM_PRES_METHOD NADI_LAT NADI_LON NADI_CAT NADI_WIND NADI_PRES WELLINGTON_LAT WELLINGTON_LON WELLINGTON_WIND WELLINGTON_PRES DS824_LAT DS824_LON DS824_STAGE DS824_WIND DS824_PRES TD9636_LAT TD9636_LON TD9636_STAGE TD9636_WIND TD9636_PRES TD9635_LAT TD9635_LON TD9635_WIND TD9635_PRES TD9635_ROCI NEUMANN_LAT NEUMANN_LON NEUMANN_CLASS NEUMANN_WIND NEUMANN_PRES MLC_LAT MLC_LON MLC_CLASS MLC_WIND MLC_PRES USA_GUST BOM_GUST BOM_GUST_PER REUNION_GUST REUNION_GUST_PER USA_SEAHGT USA_SEARAD_NE USA_SEARAD_SE USA_SEARAD_SW USA_SEARAD_NW STORM_SPEED STORM_DIR
1962036S15064 1962 13 SI MM GINA 1962-02-05 06:00:00 TS -15.3000 64.2000 main 873 840 O________OO_O_ jtwc_sh SH121962 -15.3000 64.2000 -1 -15.3000 64.2000 TC 25 -15.3000 64.2000 7 -15.3000 64.2000 TC 25 8 263
1962036S15064 1962 13 SI MM GINA 1962-02-05 09:00:00 TS -15.3490 63.7994 main 840 800 P________PP_P_ SH121962 -15.3526 63.8026 -1 -15.3526 63.8026 TC 25 -15.3381 63.7922 7 -15.3526 63.8001 TC 25 8 263
1962036S15064 1962 13 SI MM GINA 1962-02-05 12:00:00 TS -15.3952 63.3969 main 800 769 O________OP_O_ jtwc_sh SH121962 -15.4000 63.4000 -1 -15.4000 63.4000 TC 25 -15.3807 63.3875 7 -15.4000 63.4000 TC 25 8 263
1962036S15064 1962 13 SI MM GINA 1962-02-05 15:00:00 TS -15.4401 62.9935 main 769 730 P________PP_P_ SH121962 -15.4425 62.9925 -1 -15.4425 62.9925 TC 25 -15.4329 62.9891 7 -15.4424 62.9999 TC 27 8 262
1962036S15064 1962 13 SI MM GINA 1962-02-05 18:00:00 TS -15.5000 62.6000 main 730 693 O________OO_O_ jtwc_sh SH121962 -15.5000 62.6000 -1 -15.5000 62.6000 TC 25 -15.5000 62.6000 1 -15.5000 62.6000 TC 30 8 258
1962036S15064 1962 13 SI MM GINA 1962-02-05 21:00:00 TS -15.5906 62.2286 main 693 663 P________PP_P_ SH121962 -15.5924 62.2500 -1 -15.5924 62.2500 TC 25 -15.5853 62.2219 1 -15.5925 62.1925 TC 30 7 255
1962036S15064 1962 13 SI MM GINA 1962-02-06 00:00:00 TS -15.6961 61.8625 main 663 626 O________OP_O_ jtwc_sh SH121962 -15.7000 61.9000 -1 -15.7000 61.9000 TC 25 -15.6846 61.8500 1 -15.7000 61.8000 TC 30 7 254
1962036S15064 1962 13 SI MM GINA 1962-02-06 03:00:00 TS -15.7978 61.4857 main 626 591 P________PP_P_ SH121962 -15.8000 61.5075 -1 -15.8000 61.5075 TC 25 -15.7916 61.4781 1 -15.7999 61.4499 TC 30 8 254
1962036S15064 1962 13 SI MM GINA 1962-02-06 06:00:00 TS -15.9000 61.1000 main 591 557 O________OO_O_ jtwc_sh SH121962 -15.9000 61.1000 -1 -15.9000 61.1000 TC 25 -15.9000 61.1000 1 -15.9000 61.1000 TC 30 8 255
1962036S15064 1962 13 SI MM GINA 1962-02-06 09:00:00 TS -15.9989 60.7046 main 557 525 P________PP_P_ SH121962 -15.9999 60.7000 -1 -15.9999 60.7000 TC 25 -15.9957 60.7111 1 -16.0000 60.7075 TC 30 8 255
1962036S15064 1962 13 SI MM GINA 1962-02-06 12:00:00 TS -16.0980 60.3037 main 525 494 O________OP_O_ jtwc_sh SH121962 -16.1000 60.3000 -1 -16.1000 60.3000 TC 25 -16.0922 60.3147 1 -16.1000 60.3000 TC 30 8 255
1962036S15064 1962 13 SI MM GINA 1962-02-06 15:00:00 TS -16.1981 59.9046 main 494 465 P________PP_P_ SH121962 -16.1999 59.9000 -1 -16.1999 59.9000 TC 25 -16.1926 59.9110 1 -16.1999 59.9074 TC 30 8 255
1962036S15064 1962 13 SI MM GINA 1962-02-06 18:00:00 TS -16.3000 59.5000 main 465 439 O________OO_O_ jtwc_sh SH121962 -16.3000 59.5000 -1 -16.3000 59.5000 TC 25 -16.3000 59.5000 1 -16.3000 59.5000 TC 30 8 256
1962036S15064 1962 13 SI MM GINA 1962-02-06 21:00:00 TS -16.3997 59.0867 main 439 416 P________PP_P_ SH121962 -16.3924 59.1074 -1 -16.3924 59.1074 TC 25 -16.4217 59.0822 1 -16.3925 59.0499 TC 30 8 255
1962036S15064 1962 13 SI MM GINA 1962-02-07 00:00:00 TS -16.5124 58.6644 main 416 396 O________OP_O_ jtwc_sh SH121962 -16.5000 58.7000 -1 -16.5000 58.7000 TC 25 -16.5497 58.6575 1 -16.5000 58.6000 TC 30 9 253
1962036S15064 1962 13 SI MM GINA 1962-02-07 03:00:00 TS -16.6569 58.2304 main 384 369 P________PP_P_ SH121962 -16.6500 58.2501 -1 -16.6500 58.2501 TC 25 -16.6779 58.2290 1 -16.6499 58.1925 TC 30 9 251
1962036S15064 1962 13 SI MM GINA 1962-02-07 06:00:00 TS -16.8000 57.8000 main 369 358 O________OO_O_ jtwc_sh SH121962 -16.8000 57.8000 -1 -16.8000 57.8000 TC 25 -16.8000 57.8000 1 -16.8000 57.8000 TC 30 8 252
1962036S15064 1962 13 SI MM GINA 1962-02-07 09:00:00 TS -16.9103 57.3955 main 358 348 P________PP_P_ SH121962 -16.9073 57.3999 -1 -16.9073 57.3999 TC 25 -16.9191 57.3750 1 -16.9074 57.4074 TC 30 8 255
1962036S15064 1962 13 SI MM GINA 1962-02-07 12:00:00 TS -17.0074 56.9875 main 350 343 O________OP_O_ jtwc_sh SH121962 -17.0000 57.0000 -1 -17.0000 57.0000 TC 25 -17.0296 56.9500 1 -17.0000 57.0000 TC 30 8 256
1962036S15064 1962 13 SI MM GINA 1962-02-07 15:00:00 TS -17.1120 56.5438 main 351 348 P________PP_P_ SH121962 -17.1075 56.5500 -1 -17.1075 56.5500 TC 25 -17.1254 56.5250 1 -17.1075 56.5500 TC 30 9 257
1962036S15064 1962 13 SI MM GINA 1962-02-07 18:00:00 TS -17.2000 56.1000 main 356 356 O________OO_O_ jtwc_sh SH121962 -17.2000 56.1000 -1 -17.2000 56.1000 TC 25 -17.2000 56.1000 1 -17.2000 56.1000 TC 30 8 260
1962036S15064 1962 13 SI MM GINA 1962-02-07 21:00:00 TS -17.2612 55.6967 main 366 366 P________PP_P_ SH121962 -17.2648 55.7000 -1 -17.2648 55.7000 TC 25 -17.2502 55.6870 1 -17.2648 55.7000 TC 30 8 263
1962036S15064 1962 13 SI MM GINA 1962-02-08 00:00:00 TS -17.2948 55.2931 main 389 389 O________OP_O_ jtwc_sh SH121962 -17.3000 55.3000 -1 -17.3000 55.3000 TC 25 -17.2793 55.2722 1 -17.3000 55.3000 TC 30 8 267
1962036S15064 1962 13 SI MM GINA 1962-02-08 03:00:00 TS -17.3040 54.8603 main 416 416 P________PP_P_ SH121962 -17.3074 54.8649 -1 -17.3074 54.8649 TC 25 -17.2939 54.8464 1 -17.3074 54.8649 TC 30 8 269
1962036S15064 1962 13 SI MM GINA 1962-02-08 06:00:00 TS -17.3118 54.4647 reunion main 422 422 O____O___OO_O_ jtwc_sh SH121962 -17.3000 54.4000 -1 -17.5000 55.5000 99 9.90000 -17.3000 54.4000 TC 25 -17.3000 54.4000 1 -17.3000 54.4000 TC 30 8 268
1962036S15064 1962 13 SI MM GINA 1962-02-08 09:00:00 TS -17.3262 54.0093 main 428 380 P____P___PP_P_ SH121962 -17.2999 53.9075 -1 -17.4981 54.7874 99 -17.2999 53.9075 TC 25 -17.3192 53.9258 1 -17.2999 53.9075 TC 30 9 268
1962036S15064 1962 13 SI MM GINA 1962-02-08 12:00:00 TS -17.3378 53.5169 reunion main 380 336 O____O___OP_O_ jtwc_sh SH121962 -17.3000 53.4000 -1 -17.5000 54.1000 99 9.90000 -17.3000 53.4000 TC 25 -17.3297 53.4302 1 -17.3000 53.4000 TC 30 9 269
1962036S15064 1962 13 SI MM GINA 1962-02-08 15:00:00 TS -17.3509 53.0155 main 336 285 P____P___PP_P_ SH121962 -17.3074 52.9001 -1 -17.5071 53.4501 99 -17.3074 52.9001 TC 25 -17.3254 52.9196 1 -17.3073 52.9076 TC 30 10 270
1962036S15064 1962 13 SI MM GINA 1962-02-08 18:00:00 TS -17.3400 52.4800 reunion main 285 240 O____O___OO_O_ jtwc_sh SH121962 -17.3000 52.4000 -1 -17.5000 52.8000 99 9.90000 -17.3000 52.4000 TC 25 -17.3000 52.4000 1 -17.3000 52.4000 TC 30 10 273
1962036S15064 1962 13 SI MM GINA 1962-02-08 21:00:00 TS -17.2964 51.9357 main 230 175 P____P___PP_P_ SH121962 -17.2648 51.9075 -1 -17.4498 52.1074 99 -17.2648 51.9075 TC 25 -17.2376 51.9062 1 -17.2650 51.8500 TC 30 11 276
1962036S15064 1962 13 SI MM GINA 1962-02-09 00:00:00 TS -17.2313 51.3804 reunion main 175 125 O____O___OP_O_ jtwc_sh SH121962 -17.2000 51.4000 -1 -17.4000 51.4000 99 9.90000 -17.2000 51.4000 TC 25 -17.1563 51.4020 1 -17.2000 51.3000 TC 30 11 278
1962036S15064 1962 13 SI MM GINA 1962-02-09 03:00:00 TS -17.1541 50.8279 main 115 62 P____P___PP_P_ SH121962 -17.0998 50.8724 -1 -17.3997 50.7077 99 -17.0998 50.8724 TC 25 -17.0719 50.8718 1 -17.0996 50.8150 TC 30 11 278
1962036S15064 1962 13 SI MM GINA 1962-02-09 06:00:00 TS -17.0800 50.2400 reunion main 54 10 O____O___OO_O_ jtwc_sh SH121962 -17.0000 50.3000 -1 -17.4000 50.0000 99 9.90000 -17.0000 50.3000 TC 25 -17.0000 50.3000 1 -17.0000 50.3000 TC 30 12 276
1962036S15064 1962 13 SI MM GINA 1962-02-09 09:00:00 TS -17.0205 49.5862 main 10 0 P____P___PP_P_ SH121962 -16.9349 49.6725 -1 -17.3575 49.2424 99 -16.9349 49.6725 TC 25 -16.9404 49.6638 1 -16.9349 49.6800 TC 27 13 274
1962036S15064 1962 13 SI MM GINA 1962-02-09 12:00:00 TS -16.9795 48.8974 reunion main 0 0 O____O___OP_O_ jtwc_sh SH121962 -16.9000 49.0000 -1 -17.3000 48.5000 99 9.90000 -16.9000 49.0000 TC 25 -16.8976 48.9869 1 -16.9000 49.0000 TC 25 13 273
1962036S15064 1962 13 SI MM GINA 1962-02-09 15:00:00 TS -16.9540 48.2068 main 0 0 P____P___PP_P_ SH121962 -16.8849 48.3000 -1 -17.2346 47.8424 99 -16.8849 48.3000 TC 25 -16.8809 48.2917 1 -16.8849 48.3000 TC 25 13 271
1962036S15064 1962 13 SI MM GINA 1962-02-09 18:00:00 TS -16.9600 47.5200 reunion main 0 0 O____O___OO_O_ jtwc_sh SH121962 -16.9000 47.6000 -1 -17.2000 47.2000 99 9.90000 -16.9000 47.6000 TC 25 -16.9000 47.6000 7 -16.9000 47.6000 TC 25 13 268
1962036S15064 1962 13 SI MM GINA 1962-02-09 21:00:00 TS -16.9880 46.8531 main 0 0 P____P___PP_P_ SH121962 -16.9272 46.9424 -1 -17.2274 46.5001 99 -16.9272 46.9424 TC 25 -16.9309 46.9384 7 -16.9272 46.9424 TC 25 13 265
1962036S15064 1962 13 SI MM GINA 1962-02-10 00:00:00 TS -17.0603 46.1969 reunion main 0 0 O____O___OP_O_ jtwc_sh SH121962 -17.0000 46.3000 -1 -17.3000 45.8000 99 9.90000 -17.0000 46.3000 TC 25 -17.0017 46.2843 7 -17.0000 46.3000 TC 25 13 262
1962036S15064 1962 13 SI MM GINA 1962-02-10 03:00:00 TS -17.1672 45.5445 main 0 0 P____P___PP_P_ SH121962 -17.1123 45.6498 -1 -17.3773 45.1349 99 -17.1123 45.6498 TC 25 -17.1216 45.6380 7 -17.1123 45.6498 TC 25 13 257
1962036S15064 1962 13 SI MM GINA 1962-02-10 06:00:00 TS -17.3400 44.9000 reunion main 0 0 O____O___OO_O_ jtwc_sh SH121962 -17.3000 45.0000 -1 -17.5000 44.5000 99 9.90000 -17.3000 45.0000 TC 25 -17.3000 45.0000 7 -17.3000 45.0000 TC 25 13 251
1962036S15064 1962 13 SI MM GINA 1962-02-10 09:00:00 TS -17.5912 44.2523 main 0 0 P____P___PP_P_ SH121962 -17.5774 44.3426 -1 -17.6699 43.8774 99 -17.5774 44.3426 TC 25 -17.5542 44.3564 7 -17.5774 44.3426 TC 27 13 246
1962036S15064 1962 13 SI MM GINA 1962-02-10 12:00:00 TS -17.8924 43.6242 reunion main 42 42 O____O___OP_O_ jtwc_sh SH121962 -17.9000 43.7000 -1 -17.9000 43.3000 99 9.90000 -17.9000 43.7000 TC 25 -17.8620 43.7211 7 -17.9000 43.7000 TC 30 13 243
1962036S15064 1962 13 SI MM GINA 1962-02-10 15:00:00 TS -18.1976 43.0264 main 105 105 P____P___PP_P_ SH121962 -18.2073 43.0849 -1 -18.1773 42.7774 99 -18.2073 43.0849 TC 30 -18.1887 43.1000 7 -18.2073 43.0849 TC 32 13 241
1962036S15064 1962 13 SI MM GINA 1962-02-10 18:00:00 TS -18.5000 42.4600 reunion main 158 158 O____O___OO_O_ jtwc_sh SH121962 -18.5000 42.5000 -1 -18.5000 42.3000 99 9.90000 -18.5000 42.5000 TC 35 -18.5000 42.5000 2 -18.5000 42.5000 TC 35 12 241
1962036S15064 1962 13 SI MM GINA 1962-02-10 21:00:00 TS -18.7820 41.9276 main 225 225 P____P___PP_P_ SH121962 -18.7648 41.9423 -1 -18.8494 41.8871 99 -18.7648 41.9423 TC 35 -18.7661 41.9240 2 -18.7648 41.9423 TC 35 11 242
1962036S15064 1962 13 SI MM GINA 1962-02-11 00:00:00 TS -19.0418 41.3939 reunion main 281 281 O____O___OP_O_ jtwc_sh SH121962 -19.0000 41.4000 -1 -19.2000 41.4000 99 9.90000 -19.0000 41.4000 TC 35 -19.0090 41.3697 2 -19.0000 41.4000 TC 35 12 245
1962036S15064 1962 13 SI MM GINA 1962-02-11 03:00:00 TS -19.2840 40.8106 main 313 296 P____P___PP_P_ SH121962 -19.2223 40.8499 -1 -19.5303 40.6803 99 -19.2223 40.8499 TC 35 -19.2225 40.8305 2 -19.2224 40.8425 TC 35 12 248
1962036S15064 1962 13 SI MM GINA 1962-02-11 06:00:00 TS -19.4800 40.2200 reunion main 302 295 O____O___OO_O_ jtwc_sh SH121962 -19.4000 40.3000 -1 -19.8000 39.9000 99 9.90000 -19.4000 40.3000 TC 35 -19.4000 40.3000 2 -19.4000 40.3000 TC 35 11 253
1962036S15064 1962 13 SI MM GINA 1962-02-11 09:00:00 TS -19.6142 39.6597 main 297 284 P____P___PP_P_ SH121962 -19.5149 39.7423 -1 -19.9871 39.2347 99 -19.5149 39.7423 TC 35 -19.5392 39.7792 2 -19.5147 39.7998 TC 35 11 258
1962036S15064 1962 13 SI MM GINA 1962-02-11 12:00:00 TS -19.7088 39.1128 reunion main 284 252 O____O___OP_O_ jtwc_sh SH121962 -19.6000 39.2000 -1 -20.1000 38.6000 99 9.90000 -19.6000 39.2000 TC 35 -19.6438 39.2640 2 -19.6000 39.3000 TC 35 10 260
1962036S15064 1962 13 SI MM GINA 1962-02-11 15:00:00 TS -19.7981 38.5743 main 252 219 P____P___PP_P_ SH121962 -19.6996 38.7149 -1 -20.1649 37.9348 99 -19.6996 38.7149 TC 35 -19.7266 38.7419 2 -19.6998 38.7649 TC 35 10 261
1962036S15064 1962 13 SI MM GINA 1962-02-11 18:00:00 TS -19.8800 38.0200 reunion main 210 168 O____O___OO_O_ jtwc_sh SH121962 -19.8000 38.2000 -1 -20.2000 37.3000 99 9.90000 -19.8000 38.2000 TC 35 -19.8000 38.2000 2 -19.8000 38.2000 TC 35 11 261
1962036S15064 1962 13 SI MM GINA 1962-02-11 21:00:00 TS -19.9727 37.4000 main 168 138 P____P___PP_P_ SH121962 -19.9076 37.5576 -1 -20.2499 36.7125 99 -19.9076 37.5576 TC 35 -19.8912 37.5649 2 -19.9074 37.6075 TC 35 12 261
1962036S15064 1962 13 SI MM GINA 1962-02-12 00:00:00 TS -20.0548 36.7836 reunion main 144 114 O____O___OP_O_ jtwc_sh SH121962 -20.0000 36.9000 -1 -20.3000 36.2000 99 9.90000 -20.0000 36.9000 TC 35 -19.9738 36.9178 2 -20.0000 37.0000 TC 35 11 263
1962036S15064 1962 13 SI MM GINA 1962-02-12 03:00:00 TS -20.1149 36.1973 main 114 84 P____P___PP_P_ SH121962 -20.0575 36.2899 -1 -20.3574 35.7475 99 -20.0575 36.2899 TC 35 -20.0444 36.3117 2 -20.0577 36.3474 TC 35 10 264
1962036S15064 1962 13 SI MM GINA 1962-02-12 06:00:00 TS -20.1600 35.7200 reunion main 84 61 O____O___OO_O_ jtwc_sh SH121962 -20.1000 35.8000 -1 -20.4000 35.4000 99 9.90000 -20.1000 35.8000 TC 35 -20.1000 35.8000 2 -20.1000 35.8000 TC 35 7 263
1962036S15064 1962 13 SI MM GINA 1962-02-12 09:00:00 TS -20.2011 35.4253 main 61 43 P____P___PP_P_ SH121962 -20.1572 35.5050 -1 -20.3998 35.1699 99 -20.1572 35.5050 TC 35 -20.1341 35.4490 2 -20.1571 35.4975 TC 35 5 261
1962036S15064 1962 13 SI MM GINA 1962-02-12 12:00:00 TS -20.2312 35.2189 reunion main 43 23 O____O___OP_O_ jtwc_sh SH121962 -20.2000 35.3000 -1 -20.4000 35.0000 99 9.90000 -20.2000 35.3000 TC 35 -20.1560 35.1946 2 -20.2000 35.3000 TC 35 4 264
1962036S15064 1962 13 SI MM GINA 1962-02-12 15:00:00 TS -20.2450 34.9885 main 23 10 P____P___PP_P_ SH121962 -20.2075 35.0500 -1 -20.4350 34.8000 99 -20.2075 35.0500 TC 35 -20.1750 34.9929 2 -20.2000 35.0499 TC 35 4 266
1962036S15064 1962 13 SI MM GINA 1962-02-12 18:00:00 TS -20.2600 34.7600 reunion main 10 0 O____O___OO_O_ jtwc_sh SH121962 -20.2000 34.8000 -1 -20.5000 34.6000 99 9.90000 -20.2000 34.8000 TC 35 -20.2000 34.8000 2 -20.2000 34.8000 TC 35 4 266
1962036S15064 1962 13 SI MM GINA 1962-02-12 21:00:00 TS -20.2773 34.5167 main 0 0 P____P___PP_P_ SH121962 -20.1850 34.5499 -1 -20.5925 34.3925 99 -20.1850 34.5499 TC 35 -20.1819 34.5413 2 -20.2425 34.5500 TC 35 5 263
1962036S15064 1962 13 SI MM GINA 1962-02-13 00:00:00 TS -20.3160 34.2768 reunion main 0 0 O____O___OP_O_ jtwc_sh SH121962 -20.2000 34.3000 -1 -20.7000 34.2000 99 9.90000 -20.2000 34.3000 TC 35 -20.1800 34.2841 2 -20.3000 34.3000 TC 35 5 259
1962036S15064 1962 13 SI MM GINA 1962-02-13 03:00:00 TS -20.3616 34.0439 main 0 0 P____P___PP_P_ SH121962 -20.2475 34.0424 -1 -20.7700 34.0424 99 -20.2475 34.0424 TC 35 -20.2381 34.0349 2 -20.3049 34.0572 TC 35 5 247
1962036S15064 1962 13 SI MM GINA 1962-02-13 06:00:00 TS -20.5000 33.8200 reunion main 0 0 O____O___OO_O_ jtwc_sh SH121962 -20.4000 33.8000 -1 -20.9000 33.9000 99 9.90000 -20.4000 33.8000 TC 35 -20.4000 33.8000 2 -20.4000 33.8000 TC 35 6 226
1962036S15064 1962 13 SI MM GINA 1962-02-13 09:00:00 TS -20.7831 33.5809 main 0 0 P____P___PP_P_ SH121962 -20.6900 33.5924 -1 -21.1400 33.7276 99 -20.6900 33.5924 TC 35 -20.7132 33.5144 2 -20.6826 33.4778 TC 35 8 212
1962036S15064 1962 13 SI MM GINA 1962-02-13 12:00:00 TS -21.1860 33.3706 reunion main 0 0 O____O___OP_O_ jtwc_sh SH121962 -21.1000 33.4000 -1 -21.5000 33.6000 99 9.90000 -21.1000 33.4000 TC 35 -21.1300 33.2529 2 -21.1000 33.2000 TC 35 10 202
1962036S15064 1962 13 SI MM GINA 1962-02-13 15:00:00 TS -21.6649 33.1927 main 0 0 P____P___PP_P_ SH121962 -21.5851 33.1554 -1 -21.9699 33.5477 99 -21.5851 33.1554 TC 35 -21.6068 33.0647 2 -21.5774 33.0401 TC 35 10 193
1962036S15064 1962 13 SI MM GINA 1962-02-13 18:00:00 TS -22.1800 33.1200 reunion main 0 0 O____O___OO_O_ jtwc_sh SH121962 -22.1000 33.0000 -1 -22.5000 33.6000 99 9.90000 -22.1000 33.0000 TC 35 -22.1000 33.0000 2 -22.1000 33.0000 TC 35 10 0
1962036S15064 1962 13 SI MM GINA 1962-02-13 21:00:00 TS -22.6629 33.1679 main 0 0 P____P___PP_P_ SH121962 -22.5573 33.0101 -1 -23.0150 33.7549 99 -22.5573 33.0101 TC 30 -22.5699 33.0391 2 -22.6148 33.0252 TC 32 10 167
1962036S15064 1962 13 SI MM GINA 1962-02-14 00:00:00 TS -23.1286 33.3630 reunion main 0 0 O____O___OP_O_ jtwc_sh SH121962 -23.0000 33.2000 -1 -23.5000 34.0000 99 9.90000 -23.0000 33.2000 TC 25 -23.0428 33.2149 2 -23.1000 33.2000 TC 30 10 154
1962036S15064 1962 13 SI MM GINA 1962-02-14 03:00:00 TS -23.5766 33.6608 main 0 0 P____P___PP_P_ SH121962 -23.4646 33.5027 -1 -23.9374 34.2626 99 -23.4646 33.5027 TC 25 -23.4943 33.5333 2 -23.5221 33.5028 TC 30 11 141
1962036S15064 1962 13 SI MM GINA 1962-02-14 06:00:00 TS -23.9800 34.1200 reunion main 0 0 O____O___OO_O_ jtwc_sh SH121962 -23.9000 34.0000 -1 -24.3000 34.6000 99 9.90000 -23.9000 34.0000 TC 25 -23.9000 34.0000 1 -23.9000 34.0000 TC 30 13 127
1962036S15064 1962 13 SI MM GINA 1962-02-14 09:00:00 TS -24.3417 34.7568 main 0 0 P____P___PP_P_ SH121962 -24.2878 34.6973 -1 -24.5876 35.0350 99 -24.2878 34.6973 TC 25 -24.2649 34.6570 1 -24.2803 34.6972 TC 30 14 118
1962036S15064 1962 13 SI MM GINA 1962-02-14 12:00:00 TS -24.6349 35.4890 reunion main 37 37 O____O___OP_O_ jtwc_sh SH121962 -24.6000 35.5000 -1 -24.8000 35.5000 99 9.90000 -24.6000 35.5000 TC 25 -24.5744 35.4448 1 -24.6000 35.5000 TC 30 14 112
1962036S15064 1962 13 SI MM GINA 1962-02-14 15:00:00 TS -24.8674 36.2137 main 112 112 P____P___PP_P_ SH121962 -24.8453 36.3101 -1 -24.9797 35.8927 99 -24.8453 36.3101 TC 30 -24.8212 36.2604 1 -24.8452 36.2951 TC 32 13 107
1962036S15064 1962 13 SI MM GINA 1962-02-14 18:00:00 TS -25.0200 36.8600 reunion main 173 173 O____O___OO_O_ jtwc_sh SH121962 -25.0000 37.0000 -1 -25.1000 36.3000 99 9.90000 -25.0000 37.0000 TC 35 -25.0000 37.0000 2 -25.0000 37.0000 TC 35 10 103
1962036S15064 1962 13 SI MM GINA 1962-02-14 21:00:00 TS -25.0949 37.3017 main 213 213 P____P___PP_P_ SH121962 -25.0716 37.3880 -1 -25.1650 36.7852 99 -25.0716 37.3880 TC 35 -25.0943 37.4442 2 -25.0719 37.5029 TC 35 8 98
1962036S15064 1962 13 SI MM GINA 1962-02-15 00:00:00 TS -25.1263 37.6818 reunion main 248 248 O____O___OP_O_ jtwc_sh SH121962 -25.1000 37.7000 -1 -25.2000 37.3000 99 9.90000 -25.1000 37.7000 TC 35 -25.1316 37.8090 2 -25.1000 37.9000 TC 35 7 95
1962036S15064 1962 13 SI MM GINA 1962-02-15 03:00:00 TS -25.1610 38.0836 main 289 289 P____P___PP_P_ SH121962 -25.1343 38.1179 -1 -25.2493 37.7551 99 -25.1343 38.1179 TC 35 -25.1533 38.1941 2 -25.1340 38.2329 TC 35 9 96
1962036S15064 1962 13 SI MM GINA 1962-02-15 06:00:00 TS -25.2200 38.6200 reunion main 336 336 O____O___OO_O_ jtwc_sh SH121962 -25.2000 38.7000 -1 -25.3000 38.3000 99 9.90000 -25.2000 38.7000 TC 35 -25.2000 38.7000 2 -25.2000 38.7000 TC 35 12 98
1962036S15064 1962 13 SI MM GINA 1962-02-15 09:00:00 TS -25.3361 39.4253 main 415 366 P____P___PP_P_ SH121962 -25.3354 39.5398 -1 -25.3426 39.0477 99 -25.3354 39.5398 TC 35 -25.3315 39.4745 2 -25.3356 39.5248 TC 35 16 99
1962036S15064 1962 13 SI MM GINA 1962-02-15 12:00:00 TS -25.4776 40.3557 reunion main 356 284 O____O___OP_O_ jtwc_sh SH121962 -25.5000 40.5000 -1 -25.4000 39.9000 99 9.90000 -25.5000 40.5000 TC 35 -25.4879 40.3785 2 -25.5000 40.5000 TC 35 17 100
1962036S15064 1962 13 SI MM GINA 1962-02-15 15:00:00 TS -25.6213 41.2677 main 275 206 P____P___PP_P_ SH121962 -25.6572 41.4150 -1 -25.4848 40.7501 99 -25.6572 41.4150 TC 35 -25.6499 41.3435 2 -25.6572 41.4150 TC 35 17 100
1962036S15064 1962 13 SI MM GINA 1962-02-15 18:00:00 TS -25.7600 42.1600 reunion main 201 149 O____O___OO_O_ jtwc_sh SH121962 -25.8000 42.3000 -1 -25.6000 41.6000 99 9.90000 -25.8000 42.3000 TC 35 -25.8000 42.3000 2 -25.8000 42.3000 TC 35 16 99
1962036S15064 1962 13 SI MM GINA 1962-02-15 21:00:00 TS -25.8715 42.9661 main 142 105 P____P___PP_P_ SH121962 -25.9067 43.1078 -1 -25.7336 42.3630 99 -25.9067 43.1078 TC 35 -25.9041 43.1439 2 -25.9067 43.1078 TC 35 15 99
1962036S15064 1962 13 SI MM GINA 1962-02-16 00:00:00 TS -25.9794 43.7734 reunion main 98 78 O____O___OP_O_ jtwc_sh SH121962 -26.0000 43.9000 -1 -25.9000 43.2000 99 9.90000 -26.0000 43.9000 TC 35 -25.9971 43.9669 2 -26.0000 43.9000 TC 35 15 98
1962036S15064 1962 13 SI MM GINA 1962-02-16 03:00:00 TS -26.0923 44.6619 main 73 56 P____P___PP_P_ SH121962 -26.0921 44.7428 -1 -26.0935 44.2997 99 -26.0921 44.7428 TC 35 -26.0916 44.7814 2 -26.0921 44.7428 TC 35 16 99
1962036S15064 1962 13 SI MM GINA 1962-02-16 06:00:00 TS -26.2200 45.5600 reunion main 67 67 O____O___OO_O_ jtwc_sh SH121962 -26.2000 45.6000 -1 -26.3000 45.4000 99 9.90000 -26.2000 45.6000 TC 35 -26.2000 45.6000 2 -26.2000 45.6000 TC 35 16 100
1962036S15064 1962 13 SI MM GINA 1962-02-16 09:00:00 TS -26.3657 46.4141 main 126 126 P____P___PP_P_ SH121962 -26.3420 46.4501 -1 -26.4839 46.2606 99 -26.3420 46.4501 TC 35 -26.3188 46.4597 2 -26.3420 46.4501 TC 35 15 102
1962036S15064 1962 13 SI MM GINA 1962-02-16 12:00:00 TS -26.5309 47.2447 reunion main 150 150 O____O___OP_O_ jtwc_sh SH121962 -26.5000 47.3000 -1 -26.7000 47.0000 99 9.90000 -26.5000 47.3000 TC 35 -26.4543 47.3236 2 -26.5000 47.3000 TC 35 15 103
1962036S15064 1962 13 SI MM GINA 1962-02-16 15:00:00 TS -26.7017 48.0715 main 209 209 P____P___PP_P_ SH121962 -26.6346 48.1580 -1 -26.9842 47.7003 99 -26.6346 48.1580 TC 35 -26.6126 48.1757 2 -26.6423 48.1653 TC 35 15 104
1962036S15064 1962 13 SI MM GINA 1962-02-16 18:00:00 TS -26.9000 48.8800 reunion main 276 276 O____O___OO_O_ jtwc_sh SH121962 -26.8000 49.0000 -1 -27.3000 48.4000 99 9.90000 -26.8000 49.0000 TC 35 -26.8000 49.0000 2 -26.8000 49.0000 TC 35 15 107
1962036S15064 1962 13 SI MM GINA 1962-02-16 21:00:00 TS -27.1315 49.6752 main 349 349 P____P___PP_P_ SH121962 -27.0347 49.8225 -1 -27.5995 49.1705 99 -27.0347 49.8225 TC 35 -27.0117 49.7952 2 -26.9769 49.7655 TC 35 15 109
1962036S15064 1962 13 SI MM GINA 1962-02-17 00:00:00 TS -27.3907 50.4521 reunion main 432 432 O____O___OP_O_ jtwc_sh SH121962 -27.3000 50.6000 -1 -27.9000 50.0000 99 9.90000 -27.3000 50.6000 TC 35 -27.2533 50.5604 2 -27.2000 50.5000 TC 35 15 111
1962036S15064 1962 13 SI MM GINA 1962-02-17 03:00:00 TS -27.6558 51.2154 main 507 507 P____P___PP_P_ SH121962 -27.5420 51.3230 -1 -28.1919 50.8708 99 -27.5420 51.3230 TC 35 -27.5183 51.2955 2 -27.4848 51.2650 TC 35 14 112
1962036S15064 1962 13 SI MM GINA 1962-02-17 06:00:00 TS -27.9400 51.9600 reunion main 585 585 O____O___OO_O_ jtwc_sh SH121962 -27.8000 52.0000 -1 -28.5000 51.8000 99 9.90000 -27.8000 52.0000 TC 35 -27.8000 52.0000 2 -27.8000 52.0000 TC 35 14 114
1962036S15064 1962 13 SI MM GINA 1962-02-17 09:00:00 TS -28.2427 52.6811 main 661 661 P____P___PP_P_ SH121962 -28.0921 52.6578 -1 -28.8335 52.7412 99 -28.0921 52.6578 TC 35 -28.0963 52.6831 2 -28.0995 52.6655 TC 35 14 116
1962036S15064 1962 13 SI MM GINA 1962-02-17 12:00:00 TS -28.5611 53.4076 reunion main 742 742 O____O___OP_O_ jtwc_sh SH121962 -28.4000 53.3000 -1 -29.2000 53.8000 99 9.90000 -28.4000 53.3000 TC 35 -28.4056 53.3378 2 -28.4000 53.3000 TC 35 14 116
1962036S15064 1962 13 SI MM GINA 1962-02-17 15:00:00 TS -28.8528 54.1315 main 818 818 P____P___PP_P_ SH121962 -28.7148 53.9575 -1 -29.5959 55.0424 99 -28.7148 53.9575 TC 35 -28.7121 53.9737 2 -28.7147 53.9501 TC 35 13 114
1962036S15064 1962 13 SI MM GINA 1962-02-17 18:00:00 TS -29.1111 54.8000 reunion main 864 863 O____O___OO_O_ jtwc_sh SH121962 -29.0000 54.6000 -1 -30.0000 56.4000 99 9.90000 -29.0000 54.6000 TC 35 -29.0000 54.6000 2 -29.0000 54.6000 TC 35 12 111
1962036S15064 1962 13 SI MM GINA 1962-02-17 21:00:00 TS -29.2736 55.3629 main 882 882 P________PP_P_ SH121962 -29.2070 55.2007 -1 99 -29.2070 55.2007 TC 35 -29.1954 55.1966 2 -29.2073 55.2581 TC 35 9 108
1962036S15064 1962 13 SI MM GINA 1962-02-18 00:00:00 TS -29.3947 55.8226 reunion main 893 893 O________OP_O_ jtwc_sh SH121962 -29.4000 55.8000 -1 -29.4000 55.8000 TC 35 -29.3789 55.7902 2 -29.4000 55.9000 TC 35 10 110
1962036S15064 1962 13 SI MM GINA 1962-02-18 03:00:00 TS -29.6027 56.4262 main 919 919 P________PP_P_ SH121962 -29.6043 56.4138 -1 -29.6043 56.4138 TC 35 -29.5981 56.4133 2 -29.6039 56.4640 TC 35 12 114
1962036S15064 1962 13 SI MM GINA 1962-02-18 06:00:00 TS -29.9000 57.1000 reunion main 961 961 O________OO_O_ jtwc_sh SH121962 -29.9000 57.1000 -1 -29.9000 57.1000 TC 35 -29.9000 57.1000 2 -29.9000 57.1000 TC 35 15 120
1962036S15064 1962 13 SI MM GINA 1962-02-18 09:00:00 TS -30.3503 57.9270 main 1031 1031 P________PP_P_ SH121962 -30.3549 57.9125 -1 -30.3549 57.9125 TC 30 -30.3361 57.9211 2 -30.3554 57.9621 TC 32 18 124
1962036S15064 1962 13 SI MM GINA 1962-02-18 12:00:00 TS -30.8886 58.8274 reunion main 1107 1107 O________OP_O_ jtwc_sh SH121962 -30.9000 58.8000 -1 -30.9000 58.8000 TC 25 -30.8546 58.8095 2 -30.9000 58.9000 TC 30 19 125
1962036S15064 1962 13 SI MM GINA 1962-02-18 15:00:00 TS -31.4368 59.7269 main 1188 1188 P________PP_P_ SH121962 -31.4423 59.7079 -1 -31.4423 59.7079 TC 25 -31.4204 59.7188 2 -31.4421 59.7731 TC 27 19 126
1962036S15064 1962 13 SI MM GINA 1962-02-18 18:00:00 TS -32.0000 60.6000 reunion main 1283 1283 O________OO_O_ jtwc_sh SH121962 -32.0000 60.6000 -1 -32.0000 60.6000 TC 25 -32.0000 60.6000 7 -32.0000 60.6000 TC 25 18 128
1962036S15064 1962 13 SI MM GINA 1962-02-18 21:00:00 TS -32.5538 61.4106 main 1375 1375 P________PP_P_ SH121962 -32.5495 61.4309 -1 -32.5495 61.4309 TC 25 -32.5671 61.4145 7 -32.5493 61.3662 TC 25 17 130
1962036S15064 1962 13 SI MM GINA 1962-02-19 00:00:00 TS -33.1051 62.1679 reunion main 1459 1459 O________OP_O_ jtwc_sh SH121962 -33.1000 62.2000 -1 -33.1000 62.2000 TC 25 -33.1204 62.1715 7 -33.1000 62.1000 TC 25 17 132
1962036S15064 1962 13 SI MM GINA 1962-02-19 03:00:00 TS -33.6540 62.8905 main 1548 1548 P________PP_P_ SH121962 -33.6507 62.9133 -1 -33.6507 62.9133 TC 25 -33.6636 62.8926 7 -33.6511 62.8429 TC 25 16 133
1962036S15064 1962 13 SI MM GINA 1962-02-19 06:00:00 TS -34.2000 63.6000 reunion main 1629 O________OO_O_ jtwc_sh SH121962 -34.2000 63.6000 -1 -34.2000 63.6000 TC 25 -34.2000 63.6000 7 -34.2000 63.6000 TC 25 16 133

About IBTrACS Database

This database is a web-friendly format of International Best Track Archive for Climate Stewardship (IBTrACS), a global best track data archive curated by NOAA dating back to 1842.

Updated: 2021-10-21